sensor_id;sensor_type;location;lat;lon;timestamp;pressure;altitude;pressure_sealevel;temperature;humidity
39051;BME280;24805;55.852;37.644;2023-04-21T00:04:48;99526.81;;;9.89;24.91
39051;BME280;24805;55.852;37.644;2023-04-21T00:09:52;99515.06;;;9.83;24.30
39051;BME280;24805;55.852;37.644;2023-04-21T00:14:54;99508.13;;;9.82;25.19
39051;BME280;24805;55.852;37.644;2023-04-21T00:19:56;99510.81;;;9.74;24.57
39051;BME280;24805;55.852;37.644;2023-04-21T00:24:59;99516.31;;;9.64;25.38
39051;BME280;24805;55.852;37.644;2023-04-21T00:30:01;99509.25;;;9.49;25.71
39051;BME280;24805;55.852;37.644;2023-04-21T00:35:04;99509.97;;;9.35;26.73
39051;BME280;24805;55.852;37.644;2023-04-21T00:40:07;99502.53;;;9.22;26.34
39051;BME280;24805;55.852;37.644;2023-04-21T00:45:12;99500.09;;;9.12;26.80
39051;BME280;24805;55.852;37.644;2023-04-21T00:50:16;99502.75;;;9.04;26.59
39051;BME280;24805;55.852;37.644;2023-04-21T00:55:17;99492.03;;;8.97;26.97
39051;BME280;24805;55.852;37.644;2023-04-21T01:00:20;99485.59;;;8.92;27.41
39051;BME280;24805;55.852;37.644;2023-04-21T01:05:22;99479.63;;;8.82;27.40
39051;BME280;24805;55.852;37.644;2023-04-21T01:10:24;99471.72;;;8.74;26.44
39051;BME280;24805;55.852;37.644;2023-04-21T01:15:26;99473.69;;;8.72;25.73
39051;BME280;24805;55.852;37.644;2023-04-21T01:20:32;99472.53;;;8.74;26.24
39051;BME280;24805;55.852;37.644;2023-04-21T01:25:33;99476.19;;;8.73;26.68
39051;BME280;24805;55.852;37.644;2023-04-21T01:30:37;99460.81;;;8.69;27.60
39051;BME280;24805;55.852;37.644;2023-04-21T01:35:39;99463.28;;;8.62;27.37
39051;BME280;24805;55.852;37.644;2023-04-21T01:40:41;99463.81;;;8.57;26.90
39051;BME280;24805;55.852;37.644;2023-04-21T01:45:43;99468.59;;;8.54;28.00
39051;BME280;24805;55.852;37.644;2023-04-21T01:50:46;99472.88;;;8.47;28.42
39051;BME280;24805;55.852;37.644;2023-04-21T01:55:48;99460.50;;;8.39;26.96
39051;BME280;24805;55.852;37.644;2023-04-21T02:00:50;99468.91;;;8.35;28.45
39051;BME280;24805;55.852;37.644;2023-04-21T02:05:52;99455.81;;;8.25;28.36
39051;BME280;24805;55.852;37.644;2023-04-21T02:10:53;99456.50;;;8.19;27.38
39051;BME280;24805;55.852;37.644;2023-04-21T02:15:55;99451.38;;;8.17;27.11
39051;BME280;24805;55.852;37.644;2023-04-21T02:21:13;99456.97;;;8.22;26.72
39051;BME280;24805;55.852;37.644;2023-04-21T02:26:16;99456.84;;;8.32;26.71
39051;BME280;24805;55.852;37.644;2023-04-21T02:31:17;99456.84;;;8.40;28.38
39051;BME280;24805;55.852;37.644;2023-04-21T02:36:22;99465.28;;;8.44;26.63
39051;BME280;24805;55.852;37.644;2023-04-21T02:41:23;99465.44;;;8.50;26.19
39051;BME280;24805;55.852;37.644;2023-04-21T02:46:25;99470.75;;;8.58;26.93
39051;BME280;24805;55.852;37.644;2023-04-21T02:51:27;99462.13;;;8.64;26.14
39051;BME280;24805;55.852;37.644;2023-04-21T02:56:29;99468.41;;;8.72;26.54
39051;BME280;24805;55.852;37.644;2023-04-21T03:01:32;99472.84;;;8.79;26.80
39051;BME280;24805;55.852;37.644;2023-04-21T03:06:34;99469.38;;;8.87;26.93
39051;BME280;24805;55.852;37.644;2023-04-21T03:11:36;99472.19;;;8.93;25.89
39051;BME280;24805;55.852;37.644;2023-04-21T03:16:38;99472.31;;;9.00;26.81
39051;BME280;24805;55.852;37.644;2023-04-21T03:21:40;99473.31;;;9.07;26.21
39051;BME280;24805;55.852;37.644;2023-04-21T03:26:42;99473.13;;;9.17;26.73
39051;BME280;24805;55.852;37.644;2023-04-21T03:31:44;99474.91;;;9.24;27.22
39051;BME280;24805;55.852;37.644;2023-04-21T03:36:46;99476.22;;;9.37;27.61
39051;BME280;24805;55.852;37.644;2023-04-21T03:41:48;99475.00;;;9.47;26.84
39051;BME280;24805;55.852;37.644;2023-04-21T03:46:51;99481.56;;;9.59;26.53
39051;BME280;24805;55.852;37.644;2023-04-21T03:51:53;99477.38;;;9.73;27.41
39051;BME280;24805;55.852;37.644;2023-04-21T03:56:56;99472.34;;;9.86;26.75
39051;BME280;24805;55.852;37.644;2023-04-21T04:01:58;99477.38;;;10.04;26.73
39051;BME280;24805;55.852;37.644;2023-04-21T04:07:00;99473.16;;;10.18;26.45
39051;BME280;24805;55.852;37.644;2023-04-21T04:12:02;99472.25;;;10.33;26.31
39051;BME280;24805;55.852;37.644;2023-04-21T04:17:04;99474.59;;;10.51;26.58
39051;BME280;24805;55.852;37.644;2023-04-21T04:22:06;99473.81;;;10.65;26.19
39051;BME280;24805;55.852;37.644;2023-04-21T04:27:08;99473.66;;;10.82;25.89
39051;BME280;24805;55.852;37.644;2023-04-21T04:32:10;99474.88;;;10.94;26.61
39051;BME280;24805;55.852;37.644;2023-04-21T04:37:11;99469.75;;;11.07;25.78
39051;BME280;24805;55.852;37.644;2023-04-21T04:42:14;99473.25;;;11.22;26.30
39051;BME280;24805;55.852;37.644;2023-04-21T04:47:15;99474.69;;;11.39;25.83
39051;BME280;24805;55.852;37.644;2023-04-21T04:52:17;99467.81;;;11.60;25.82
39051;BME280;24805;55.852;37.644;2023-04-21T04:57:19;99464.88;;;11.84;25.47
39051;BME280;24805;55.852;37.644;2023-04-21T05:02:21;99474.81;;;12.12;24.68
39051;BME280;24805;55.852;37.644;2023-04-21T05:07:25;99462.94;;;13.06;25.52
39051;BME280;24805;55.852;37.644;2023-04-21T05:12:27;99454.72;;;14.90;25.22
39051;BME280;24805;55.852;37.644;2023-04-21T05:17:29;99463.22;;;16.72;24.59
39051;BME280;24805;55.852;37.644;2023-04-21T05:22:35;99450.94;;;18.41;23.34
39051;BME280;24805;55.852;37.644;2023-04-21T05:27:37;99447.78;;;19.55;23.07
39051;BME280;24805;55.852;37.644;2023-04-21T05:32:39;99442.19;;;20.14;22.93
39051;BME280;24805;55.852;37.644;2023-04-21T05:37:41;99436.13;;;20.85;22.68
39051;BME280;24805;55.852;37.644;2023-04-21T05:42:43;99438.53;;;21.37;22.46
39051;BME280;24805;55.852;37.644;2023-04-21T05:47:45;99438.84;;;21.84;21.65
39051;BME280;24805;55.852;37.644;2023-04-21T05:52:47;99445.19;;;23.13;21.68
39051;BME280;24805;55.852;37.644;2023-04-21T05:57:49;99439.72;;;24.27;20.11
39051;BME280;24805;55.852;37.644;2023-04-21T06:02:51;99437.94;;;25.58;20.64
39051;BME280;24805;55.852;37.644;2023-04-21T06:07:53;99433.00;;;26.35;19.99
39051;BME280;24805;55.852;37.644;2023-04-21T06:12:55;99422.31;;;26.38;18.28
39051;BME280;24805;55.852;37.644;2023-04-21T06:17:57;99423.00;;;26.88;15.80
39051;BME280;24805;55.852;37.644;2023-04-21T06:22:59;99423.56;;;27.86;18.06
39051;BME280;24805;55.852;37.644;2023-04-21T06:28:01;99418.81;;;28.66;14.39
39051;BME280;24805;55.852;37.644;2023-04-21T06:33:03;99425.25;;;29.76;11.35
39051;BME280;24805;55.852;37.644;2023-04-21T06:38:07;99422.22;;;30.95;13.26
39051;BME280;24805;55.852;37.644;2023-04-21T06:43:08;99426.97;;;32.16;13.10
39051;BME280;24805;55.852;37.644;2023-04-21T06:48:10;99424.28;;;32.98;14.40
39051;BME280;24805;55.852;37.644;2023-04-21T06:53:12;99412.97;;;32.99;14.66
39051;BME280;24805;55.852;37.644;2023-04-21T06:58:14;99408.84;;;33.61;14.13
39051;BME280;24805;55.852;37.644;2023-04-21T07:03:16;99407.22;;;34.51;13.40
39051;BME280;24805;55.852;37.644;2023-04-21T07:08:18;99400.84;;;35.78;12.86
39051;BME280;24805;55.852;37.644;2023-04-21T07:13:20;99402.72;;;36.26;9.99
39051;BME280;24805;55.852;37.644;2023-04-21T07:18:22;99382.53;;;36.81;12.82
39051;BME280;24805;55.852;37.644;2023-04-21T07:23:24;99391.56;;;36.50;9.26
39051;BME280;24805;55.852;37.644;2023-04-21T07:28:26;99380.06;;;36.92;8.87
39051;BME280;24805;55.852;37.644;2023-04-21T07:33:28;99382.41;;;38.26;9.06
39051;BME280;24805;55.852;37.644;2023-04-21T07:38:30;99368.22;;;39.42;5.60
39051;BME280;24805;55.852;37.644;2023-04-21T07:43:32;99373.56;;;38.59;6.84
39051;BME280;24805;55.852;37.644;2023-04-21T07:48:33;99363.22;;;38.18;7.80
39051;BME280;24805;55.852;37.644;2023-04-21T07:53:35;99359.34;;;38.84;9.71
39051;BME280;24805;55.852;37.644;2023-04-21T07:58:37;99356.19;;;39.57;9.15
39051;BME280;24805;55.852;37.644;2023-04-21T08:03:39;99350.03;;;40.31;5.25
39051;BME280;24805;55.852;37.644;2023-04-21T08:08:41;99347.19;;;40.65;6.39
39051;BME280;24805;55.852;37.644;2023-04-21T08:13:43;99340.72;;;41.45;5.37
39051;BME280;24805;55.852;37.644;2023-04-21T08:18:45;99334.38;;;41.48;7.10
39051;BME280;24805;55.852;37.644;2023-04-21T08:23:47;99321.97;;;41.39;8.82
39051;BME280;24805;55.852;37.644;2023-04-21T08:28:50;99325.88;;;40.79;6.33
39051;BME280;24805;55.852;37.644;2023-04-21T08:33:53;99323.81;;;39.99;6.53
39051;BME280;24805;55.852;37.644;2023-04-21T08:39:03;99324.31;;;41.29;7.64
39051;BME280;24805;55.852;37.644;2023-04-21T08:44:05;99314.47;;;42.37;6.37
39051;BME280;24805;55.852;37.644;2023-04-21T08:49:08;99304.16;;;43.08;6.25
39051;BME280;24805;55.852;37.644;2023-04-21T08:54:10;99286.50;;;43.61;6.94
39051;BME280;24805;55.852;37.644;2023-04-21T08:59:13;99278.19;;;44.30;4.47
39051;BME280;24805;55.852;37.644;2023-04-21T09:04:15;99282.97;;;44.85;6.66
39051;BME280;24805;55.852;37.644;2023-04-21T09:09:18;99263.41;;;45.60;5.10
39051;BME280;24805;55.852;37.644;2023-04-21T09:14:20;99266.94;;;46.25;3.38
39051;BME280;24805;55.852;37.644;2023-04-21T09:19:22;99248.78;;;46.07;3.55
39051;BME280;24805;55.852;37.644;2023-04-21T09:24:27;99238.63;;;46.16;3.90
39051;BME280;24805;55.852;37.644;2023-04-21T09:29:29;99240.78;;;45.44;4.13
39051;BME280;24805;55.852;37.644;2023-04-21T09:34:31;99243.72;;;44.96;6.01
39051;BME280;24805;55.852;37.644;2023-04-21T09:39:36;99229.28;;;43.94;5.81
39051;BME280;24805;55.852;37.644;2023-04-21T09:44:53;99233.34;;;43.82;6.54
39051;BME280;24805;55.852;37.644;2023-04-21T09:50:15;99222.81;;;45.04;3.76
39051;BME280;24805;55.852;37.644;2023-04-21T09:55:36;99211.41;;;46.40;3.73
39051;BME280;24805;55.852;37.644;2023-04-21T10:00:38;99206.28;;;46.82;4.17
39051;BME280;24805;55.852;37.644;2023-04-21T10:05:41;99210.22;;;46.14;5.56
39051;BME280;24805;55.852;37.644;2023-04-21T10:10:43;99213.31;;;42.61;5.69
39051;BME280;24805;55.852;37.644;2023-04-21T10:15:46;99193.50;;;40.68;5.74
39051;BME280;24805;55.852;37.644;2023-04-21T10:20:55;99182.88;;;41.56;4.81
39051;BME280;24805;55.852;37.644;2023-04-21T10:26:16;99188.94;;;43.15;4.35
39051;BME280;24805;55.852;37.644;2023-04-21T10:31:19;99191.66;;;44.13;5.27
39051;BME280;24805;55.852;37.644;2023-04-21T10:36:23;99181.53;;;44.74;5.29
39051;BME280;24805;55.852;37.644;2023-04-21T10:41:25;99170.34;;;45.76;3.73
39051;BME280;24805;55.852;37.644;2023-04-21T10:56:58;99159.78;;;43.19;5.89
39051;BME280;24805;55.852;37.644;2023-04-21T11:02:21;99147.91;;;40.28;5.05
39051;BME280;24805;55.852;37.644;2023-04-21T11:07:22;99145.97;;;38.42;6.44
39051;BME280;24805;55.852;37.644;2023-04-21T11:12:26;99148.97;;;39.09;6.35
39051;BME280;24805;55.852;37.644;2023-04-21T11:17:28;99147.97;;;39.24;6.54
39051;BME280;24805;55.852;37.644;2023-04-21T11:22:30;99140.22;;;40.62;5.27
39051;BME280;24805;55.852;37.644;2023-04-21T11:27:32;99140.16;;;40.04;6.55
39051;BME280;24805;55.852;37.644;2023-04-21T11:32:34;99128.44;;;40.76;5.88
39051;BME280;24805;55.852;37.644;2023-04-21T11:37:38;99124.31;;;41.28;5.76
39051;BME280;24805;55.852;37.644;2023-04-21T11:42:40;99120.53;;;42.11;5.05
39051;BME280;24805;55.852;37.644;2023-04-21T11:47:42;99108.59;;;42.10;5.80
39051;BME280;24805;55.852;37.644;2023-04-21T11:52:44;99102.59;;;39.76;6.09
39051;BME280;24805;55.852;37.644;2023-04-21T11:57:46;99100.63;;;38.04;6.83
39051;BME280;24805;55.852;37.644;2023-04-21T12:02:54;99092.13;;;38.96;6.67
39051;BME280;24805;55.852;37.644;2023-04-21T12:07:57;99090.88;;;39.53;5.74
39051;BME280;24805;55.852;37.644;2023-04-21T12:12:59;99093.28;;;39.99;5.29
39051;BME280;24805;55.852;37.644;2023-04-21T12:18:01;99086.03;;;40.31;6.27
39051;BME280;24805;55.852;37.644;2023-04-21T12:23:03;99076.25;;;38.63;6.14
39051;BME280;24805;55.852;37.644;2023-04-21T12:28:05;99074.69;;;37.67;6.27
39051;BME280;24805;55.852;37.644;2023-04-21T12:33:10;99066.59;;;38.26;6.63
39051;BME280;24805;55.852;37.644;2023-04-21T12:38:12;99066.06;;;38.44;7.16
39051;BME280;24805;55.852;37.644;2023-04-21T12:43:14;99054.66;;;38.22;7.13
39051;BME280;24805;55.852;37.644;2023-04-21T12:48:16;99066.59;;;37.35;6.90
39051;BME280;24805;55.852;37.644;2023-04-21T12:53:18;99059.25;;;36.69;7.24
39051;BME280;24805;55.852;37.644;2023-04-21T12:58:20;99054.34;;;36.43;7.03
39051;BME280;24805;55.852;37.644;2023-04-21T13:03:22;99046.94;;;36.47;6.64
39051;BME280;24805;55.852;37.644;2023-04-21T13:08:24;99043.13;;;33.97;7.73
39051;BME280;24805;55.852;37.644;2023-04-21T13:13:26;99034.69;;;30.58;8.85
39051;BME280;24805;55.852;37.644;2023-04-21T13:18:28;99031.09;;;29.83;9.60
39051;BME280;24805;55.852;37.644;2023-04-21T13:23:30;99022.16;;;30.74;9.41
39051;BME280;24805;55.852;37.644;2023-04-21T13:28:32;99016.28;;;31.36;9.32
39051;BME280;24805;55.852;37.644;2023-04-21T13:33:34;99014.25;;;31.15;9.08
39051;BME280;24805;55.852;37.644;2023-04-21T13:38:36;99017.16;;;30.67;9.33
39051;BME280;24805;55.852;37.644;2023-04-21T13:43:38;99006.75;;;30.12;9.60
39051;BME280;24805;55.852;37.644;2023-04-21T13:48:40;98995.31;;;29.09;9.76
39051;BME280;24805;55.852;37.644;2023-04-21T13:53:42;99000.66;;;27.19;9.96
39051;BME280;24805;55.852;37.644;2023-04-21T13:58:44;98986.66;;;26.18;11.04
39051;BME280;24805;55.852;37.644;2023-04-21T14:03:46;98985.53;;;25.23;11.97
39051;BME280;24805;55.852;37.644;2023-04-21T14:08:48;98989.75;;;24.27;11.82
39051;BME280;24805;55.852;37.644;2023-04-21T14:13:50;98990.53;;;23.58;12.56
39051;BME280;24805;55.852;37.644;2023-04-21T14:19:09;98987.09;;;23.12;13.53
39051;BME280;24805;55.852;37.644;2023-04-21T14:24:11;98978.13;;;22.66;11.72
39051;BME280;24805;55.852;37.644;2023-04-21T14:29:13;98973.47;;;22.26;12.44
39051;BME280;24805;55.852;37.644;2023-04-21T14:34:15;98977.66;;;21.91;12.26
39051;BME280;24805;55.852;37.644;2023-04-21T14:39:17;98970.22;;;21.61;13.15
39051;BME280;24805;55.852;37.644;2023-04-21T14:44:19;98986.50;;;21.29;15.02
39051;BME280;24805;55.852;37.644;2023-04-21T14:49:21;98977.38;;;21.04;13.36
39051;BME280;24805;55.852;37.644;2023-04-21T14:54:23;98978.31;;;20.82;14.09
39051;BME280;24805;55.852;37.644;2023-04-21T14:59:25;98973.91;;;20.71;15.71
39051;BME280;24805;55.852;37.644;2023-04-21T15:04:27;98970.81;;;20.57;14.06
39051;BME280;24805;55.852;37.644;2023-04-21T15:09:29;98976.59;;;20.44;15.10
39051;BME280;24805;55.852;37.644;2023-04-21T15:14:31;98984.00;;;20.54;15.09
39051;BME280;24805;55.852;37.644;2023-04-21T15:19:33;98976.13;;;20.79;15.24
39051;BME280;24805;55.852;37.644;2023-04-21T15:24:36;98980.78;;;20.89;14.37
39051;BME280;24805;55.852;37.644;2023-04-21T15:29:38;98984.44;;;20.73;14.74
39051;BME280;24805;55.852;37.644;2023-04-21T15:34:40;98986.56;;;20.44;15.90
39051;BME280;24805;55.852;37.644;2023-04-21T15:39:42;98986.22;;;20.13;15.96
39051;BME280;24805;55.852;37.644;2023-04-21T15:44:44;98981.13;;;19.90;15.66
39051;BME280;24805;55.852;37.644;2023-04-21T15:49:47;98992.28;;;19.60;15.63
39051;BME280;24805;55.852;37.644;2023-04-21T15:54:49;98991.34;;;19.33;16.02
39051;BME280;24805;55.852;37.644;2023-04-21T15:59:51;99000.19;;;19.11;16.32
39051;BME280;24805;55.852;37.644;2023-04-21T16:04:53;98992.50;;;18.86;15.66
39051;BME280;24805;55.852;37.644;2023-04-21T16:09:55;98997.22;;;18.63;17.92
39051;BME280;24805;55.852;37.644;2023-04-21T16:14:57;98985.59;;;18.45;16.41
39051;BME280;24805;55.852;37.644;2023-04-21T16:20:16;98997.13;;;18.29;18.85
39051;BME280;24805;55.852;37.644;2023-04-21T16:25:18;98998.47;;;18.15;19.54
39051;BME280;24805;55.852;37.644;2023-04-21T16:30:20;99002.22;;;18.02;18.97
39051;BME280;24805;55.852;37.644;2023-04-21T16:35:22;99007.97;;;17.94;18.14
39051;BME280;24805;55.852;37.644;2023-04-21T16:40:25;99017.78;;;17.88;17.92
39051;BME280;24805;55.852;37.644;2023-04-21T16:45:27;99006.94;;;17.83;18.49
39051;BME280;24805;55.852;37.644;2023-04-21T16:50:29;99011.63;;;17.76;19.17
39051;BME280;24805;55.852;37.644;2023-04-21T16:55:31;99005.81;;;17.68;19.16
39051;BME280;24805;55.852;37.644;2023-04-21T17:00:33;99007.44;;;17.57;19.84
39051;BME280;24805;55.852;37.644;2023-04-21T17:05:36;99000.19;;;17.46;19.96
39051;BME280;24805;55.852;37.644;2023-04-21T17:10:40;99007.00;;;17.37;20.62
39051;BME280;24805;55.852;37.644;2023-04-21T17:15:42;99007.78;;;17.26;18.68
39051;BME280;24805;55.852;37.644;2023-04-21T17:20:44;99001.97;;;17.17;21.15
39051;BME280;24805;55.852;37.644;2023-04-21T17:25:46;98999.13;;;17.00;21.45
39051;BME280;24805;55.852;37.644;2023-04-21T17:30:48;99003.78;;;16.81;20.87
39051;BME280;24805;55.852;37.644;2023-04-21T17:35:53;98997.00;;;16.67;19.11
39051;BME280;24805;55.852;37.644;2023-04-21T17:41:03;98992.28;;;16.51;19.75
39051;BME280;24805;55.852;37.644;2023-04-21T17:46:07;98991.16;;;16.29;20.23
39051;BME280;24805;55.852;37.644;2023-04-21T17:51:09;98978.44;;;15.94;22.26
39051;BME280;24805;55.852;37.644;2023-04-21T17:56:12;98986.59;;;15.81;21.74
39051;BME280;24805;55.852;37.644;2023-04-21T18:01:15;98988.25;;;15.64;21.52
39051;BME280;24805;55.852;37.644;2023-04-21T18:06:17;98982.81;;;15.52;19.60
39051;BME280;24805;55.852;37.644;2023-04-21T18:11:19;98987.63;;;15.43;22.31
39051;BME280;24805;55.852;37.644;2023-04-21T18:16:22;98984.25;;;15.30;20.99
39051;BME280;24805;55.852;37.644;2023-04-21T18:21:24;98968.38;;;15.16;22.58
39051;BME280;24805;55.852;37.644;2023-04-21T18:26:27;98966.25;;;15.00;22.64
39051;BME280;24805;55.852;37.644;2023-04-21T18:31:29;98967.63;;;14.85;24.31
39051;BME280;24805;55.852;37.644;2023-04-21T18:36:33;98966.53;;;14.67;24.05
39051;BME280;24805;55.852;37.644;2023-04-21T18:41:38;98972.19;;;14.53;21.91
39051;BME280;24805;55.852;37.644;2023-04-21T18:46:41;98964.03;;;14.41;24.03
39051;BME280;24805;55.852;37.644;2023-04-21T18:51:43;98955.28;;;14.27;24.18
39051;BME280;24805;55.852;37.644;2023-04-21T18:56:45;98953.31;;;14.16;24.83
39051;BME280;24805;55.852;37.644;2023-04-21T19:01:47;98952.31;;;14.10;25.11
39051;BME280;24805;55.852;37.644;2023-04-21T19:06:49;98951.31;;;14.05;24.95
39051;BME280;24805;55.852;37.644;2023-04-21T19:11:51;98949.72;;;13.97;24.47
39051;BME280;24805;55.852;37.644;2023-04-21T19:16:53;98949.75;;;13.91;25.56
39051;BME280;24805;55.852;37.644;2023-04-21T19:21:55;98954.28;;;13.84;25.61
39051;BME280;24805;55.852;37.644;2023-04-21T19:26:57;98946.75;;;13.74;25.77
39051;BME280;24805;55.852;37.644;2023-04-21T19:31:58;98941.84;;;13.64;25.54
39051;BME280;24805;55.852;37.644;2023-04-21T19:37:00;98940.25;;;13.57;25.92
39051;BME280;24805;55.852;37.644;2023-04-21T19:42:02;98938.03;;;13.47;25.08
39051;BME280;24805;55.852;37.644;2023-04-21T19:47:04;98937.44;;;13.38;25.52
39051;BME280;24805;55.852;37.644;2023-04-21T19:52:06;98932.75;;;13.27;25.75
39051;BME280;24805;55.852;37.644;2023-04-21T19:57:08;98932.97;;;13.19;26.67
39051;BME280;24805;55.852;37.644;2023-04-21T20:02:10;98931.31;;;13.11;27.25
39051;BME280;24805;55.852;37.644;2023-04-21T20:07:12;98926.22;;;13.03;27.25
39051;BME280;24805;55.852;37.644;2023-04-21T20:12:14;98935.03;;;12.97;26.41
39051;BME280;24805;55.852;37.644;2023-04-21T20:17:16;98927.06;;;12.91;26.62
39051;BME280;24805;55.852;37.644;2023-04-21T20:22:18;98929.50;;;12.86;27.73
39051;BME280;24805;55.852;37.644;2023-04-21T20:27:20;98927.47;;;12.81;27.70
39051;BME280;24805;55.852;37.644;2023-04-21T20:32:21;98930.56;;;12.78;27.25
39051;BME280;24805;55.852;37.644;2023-04-21T20:37:24;98927.06;;;12.71;26.95
39051;BME280;24805;55.852;37.644;2023-04-21T20:42:26;98929.94;;;12.69;26.61
39051;BME280;24805;55.852;37.644;2023-04-21T20:47:28;98927.06;;;12.71;27.65
39051;BME280;24805;55.852;37.644;2023-04-21T20:52:30;98932.81;;;12.74;27.29
39051;BME280;24805;55.852;37.644;2023-04-21T20:57:32;98933.22;;;12.78;27.28
39051;BME280;24805;55.852;37.644;2023-04-21T21:02:34;98934.22;;;12.84;28.56
39051;BME280;24805;55.852;37.644;2023-04-21T21:07:36;98933.19;;;12.91;27.71
39051;BME280;24805;55.852;37.644;2023-04-21T21:12:38;98920.31;;;12.95;28.45
39051;BME280;24805;55.852;37.644;2023-04-21T21:17:40;98928.47;;;13.13;27.56
39051;BME280;24805;55.852;37.644;2023-04-21T21:22:42;98927.00;;;13.24;27.69
39051;BME280;24805;55.852;37.644;2023-04-21T21:27:44;98928.66;;;13.31;29.22
39051;BME280;24805;55.852;37.644;2023-04-21T21:32:46;98920.84;;;13.36;28.80
39051;BME280;24805;55.852;37.644;2023-04-21T21:37:48;98921.84;;;13.42;27.96
39051;BME280;24805;55.852;37.644;2023-04-21T21:42:50;98925.94;;;13.44;27.48
39051;BME280;24805;55.852;37.644;2023-04-21T21:47:52;98919.97;;;13.49;27.03
39051;BME280;24805;55.852;37.644;2023-04-21T21:52:54;98930.22;;;13.52;26.72
39051;BME280;24805;55.852;37.644;2023-04-21T21:57:55;98921.41;;;13.52;26.77
39051;BME280;24805;55.852;37.644;2023-04-21T22:02:57;98921.41;;;13.45;26.80
39051;BME280;24805;55.852;37.644;2023-04-21T22:08:00;98922.50;;;13.31;26.71
39051;BME280;24805;55.852;37.644;2023-04-21T22:13:01;98933.16;;;13.11;26.42
39051;BME280;24805;55.852;37.644;2023-04-21T22:18:03;98941.59;;;12.88;27.11
39051;BME280;24805;55.852;37.644;2023-04-21T22:23:05;98930.56;;;12.65;25.90
39051;BME280;24805;55.852;37.644;2023-04-21T22:28:07;98921.13;;;12.36;27.61
39051;BME280;24805;55.852;37.644;2023-04-21T22:33:09;98931.97;;;12.28;27.70
39051;BME280;24805;55.852;37.644;2023-04-21T22:38:11;98921.50;;;12.06;28.76
39051;BME280;24805;55.852;37.644;2023-04-21T22:43:13;98934.97;;;11.92;29.29
39051;BME280;24805;55.852;37.644;2023-04-21T22:48:15;98925.31;;;11.78;29.27
39051;BME280;24805;55.852;37.644;2023-04-21T22:53:17;98923.81;;;11.68;27.94
39051;BME280;24805;55.852;37.644;2023-04-21T22:58:19;98918.25;;;11.57;29.59
39051;BME280;24805;55.852;37.644;2023-04-21T23:03:21;98925.94;;;11.45;27.17
39051;BME280;24805;55.852;37.644;2023-04-21T23:08:24;98925.91;;;11.32;28.58
39051;BME280;24805;55.852;37.644;2023-04-21T23:13:26;98924.22;;;11.24;28.12
39051;BME280;24805;55.852;37.644;2023-04-21T23:18:28;98915.78;;;11.14;29.57
39051;BME280;24805;55.852;37.644;2023-04-21T23:23:30;98919.81;;;11.03;31.13
39051;BME280;24805;55.852;37.644;2023-04-21T23:28:32;98918.53;;;10.93;30.40
39051;BME280;24805;55.852;37.644;2023-04-21T23:33:34;98917.41;;;10.81;30.72
39051;BME280;24805;55.852;37.644;2023-04-21T23:38:36;98916.75;;;10.72;31.03
39051;BME280;24805;55.852;37.644;2023-04-21T23:43:37;98913.03;;;10.66;30.87
39051;BME280;24805;55.852;37.644;2023-04-21T23:48:39;98913.78;;;10.60;31.60
39051;BME280;24805;55.852;37.644;2023-04-21T23:53:41;98912.28;;;10.51;31.88
39051;BME280;24805;55.852;37.644;2023-04-21T23:58:43;98910.59;;;10.44;31.33
